E.r. Bern — A8XQ5 — position and weather

sailwx.info

Track history (hours):
 
Tides and Currents Weather Stations Pressure Air Temp Water Temp Dewpoint Dewpoint Depression Visibility Wind Speed Wind Dir Waves Ship Positions

E.r. Bern

Last reported at 2014-Sep-30 03:30 UTC. Time now 2014-Dec-18 04:08 UTC.
Position S 34°05' E 017°57'.
Warning: this ship's position is months out of date.

Length 187 m; draft 11.9 m.

Type: Cargo ship. MMSI: 636092150.

Date/timePositionNaut miles runAvg speedWind from/ knotsBaromVisibWave heightAir tempDewpointWater temp
2014-Sep-30 03:30S 34°05' E 017°57'1010.6
2014-Sep-30 02:31S 34°14' E 018°05'  
2014-Sep-26 21:19S 30°21' E 030°52'810.8
2014-Sep-26 20:33S 30°14' E 030°56'1010.1
2014-Sep-26 19:33S 30°05' E 031°01'10 9.7
2014-Sep-26 18:33S 29°56' E 031°06'4 4.1
2014-Sep-26 17:33S 29°53' E 031°03'1 1.1
2014-Sep-26 16:33S 29°52' E 031°02'0 0.0
2014-Sep-26 15:21S 29°52' E 031°02'0 0.0
2014-Sep-26 14:33S 29°52' E 031°02'0 0.0
2014-Sep-26 13:33S 29°52' E 031°02'0 0.0
2014-Sep-26 12:33S 29°52' E 031°02'0 0.0
2014-Sep-26 11:27S 29°52' E 031°02'0 0.0
2014-Sep-26 10:33S 29°52' E 031°02'0 0.0
2014-Sep-26 09:33S 29°52' E 031°02'0 0.0
2014-Sep-26 08:21S 29°52' E 031°02'0 0.0
2014-Sep-26 06:27S 29°52' E 031°02'0 0.0
2014-Sep-26 05:33S 29°52' E 031°02'0 0.0
2014-Sep-26 04:21S 29°52' E 031°02'0 0.0
2014-Sep-26 03:33S 29°52' E 031°02'0 0.0
2014-Sep-26 02:21S 29°52' E 031°02'0 0.0
2014-Sep-26 00:09S 29°52' E 031°02'0 0.0
2014-Sep-25 23:33S 29°52' E 031°02'0 0.0
2014-Sep-25 22:33S 29°52' E 031°02'0 0.0
2014-Sep-25 21:33S 29°52' E 031°02'0 0.0
2014-Sep-25 20:27S 29°52' E 031°02'0 0.0
2014-Sep-25 19:33S 29°52' E 031°02'0 0.0
2014-Sep-25 18:03S 29°52' E 031°02'0 0.0
2014-Sep-25 17:33S 29°52' E 031°02'0 0.0
2014-Sep-25 16:27S 29°52' E 031°02'0 0.0
2014-Sep-25 15:27S 29°52' E 031°02'0 0.3
2014-Sep-25 14:33S 29°52' E 031°02'6 6.2
2014-Sep-25 13:33S 29°49' E 031°08'5 4.2
2014-Sep-25 12:24S 29°46' E 031°12'0 0.0
2014-Sep-25 11:18S 29°46' E 031°12'0 0.0
2014-Sep-25 10:18S 29°46' E 031°12'0 0.0
2014-Sep-25 09:30S 29°46' E 031°12'0 0.1
2014-Sep-25 08:12S 29°46' E 031°12'0 0.1
2014-Sep-25 07:24S 29°46' E 031°12'0 0.0
2014-Sep-25 06:30S 29°46' E 031°12'0 0.0
2014-Sep-25 05:30S 29°46' E 031°12'0 0.1
2014-Sep-25 04:24S 29°46' E 031°12'0 0.1
2014-Sep-25 03:30S 29°46' E 031°12'0 0.0
2014-Sep-25 02:30S 29°46' E 031°12'0 0.0
2014-Sep-25 01:30S 29°46' E 031°12'0 0.0
2014-Sep-25 00:24S 29°46' E 031°12'0 0.0
2014-Sep-24 23:30S 29°46' E 031°12'0 0.0
2014-Sep-24 22:24S 29°46' E 031°12'0 0.0
2014-Sep-24 21:30S 29°46' E 031°12'0 0.0
2014-Sep-24 19:30S 29°46' E 031°12'0 0.0
2014-Sep-24 18:24S 29°46' E 031°12'0 0.0
2014-Sep-24 17:30S 29°46' E 031°12'0 0.1
2014-Sep-24 15:11S 29°46' E 031°12'0 0.0
2014-Sep-24 14:29S 29°46' E 031°12'0 0.0
2014-Sep-24 13:17S 29°46' E 031°12'0 0.0
2014-Sep-24 12:23S 29°46' E 031°12'0 0.0
2014-Sep-24 11:29S 29°46' E 031°12'0 0.0
2014-Sep-24 10:29S 29°46' E 031°12'0 0.0
2014-Sep-24 09:17S 29°46' E 031°12'0 0.0
2014-Sep-24 08:23S 29°46' E 031°12'0 0.0
2014-Sep-24 07:23S 29°46' E 031°12'0 0.0
2014-Sep-24 06:11S 29°46' E 031°12'0 0.0
2014-Sep-24 05:17S 29°46' E 031°12'0 0.0
2014-Sep-24 04:29S 29°46' E 031°12'0 0.0
2014-Sep-24 01:23S 29°46' E 031°12'0 0.0
2014-Sep-24 00:23S 29°46' E 031°12'0 0.0
2014-Sep-23 23:11S 29°46' E 031°12'0 0.0
2014-Sep-23 22:23S 29°46' E 031°12'0 0.0
2014-Sep-23 20:11S 29°46' E 031°12'0 0.1
2014-Sep-23 19:29S 29°46' E 031°12'2 2.4
2014-Sep-23 18:33S 29°49' E 031°12'2 2.1
2014-Sep-23 17:33S 29°50' E 031°10'9 8.9
2014-Sep-23 16:33S 29°47' E 031°19'1111.4
2014-Sep-23 15:33S 29°43' E 031°32'9 8.9
2014-Sep-23 14:33S 29°41' E 031°42'1110.6
2014-Sep-23 13:32S 29°39' E 031°54'  
Track history (hours):
 
Tides and Currents Weather Stations Pressure Air Temp Water Temp Dewpoint Dewpoint Depression Visibility Wind Speed Wind Dir Waves Ship Positions

E.r. Bern

Last reported at 2014-Sep-30 03:30 UTC. Time now 2014-Dec-18 04:08 UTC.
Position S 34°05' E 017°57'.
Warning: this ship's position is months out of date.

Length 187 m; draft 11.9 m.

Type: Cargo ship. MMSI: 636092150.

Date/timePositionNaut miles runAvg speedWind from/ knotsBaromVisibWave heightAir tempDewpointWater temp
2014-Sep-30 03:30S 34°05' E 017°57'1010.6
2014-Sep-30 02:31S 34°14' E 018°05'  
2014-Sep-26 21:19S 30°21' E 030°52'810.8
2014-Sep-26 20:33S 30°14' E 030°56'1010.1
2014-Sep-26 19:33S 30°05' E 031°01'10 9.7
2014-Sep-26 18:33S 29°56' E 031°06'4 4.1
2014-Sep-26 17:33S 29°53' E 031°03'1 1.1
2014-Sep-26 16:33S 29°52' E 031°02'0 0.0
2014-Sep-26 15:21S 29°52' E 031°02'0 0.0
2014-Sep-26 14:33S 29°52' E 031°02'0 0.0
2014-Sep-26 13:33S 29°52' E 031°02'0 0.0
2014-Sep-26 12:33S 29°52' E 031°02'0 0.0
2014-Sep-26 11:27S 29°52' E 031°02'0 0.0
2014-Sep-26 10:33S 29°52' E 031°02'0 0.0
2014-Sep-26 09:33S 29°52' E 031°02'0 0.0
2014-Sep-26 08:21S 29°52' E 031°02'0 0.0
2014-Sep-26 06:27S 29°52' E 031°02'0 0.0
2014-Sep-26 05:33S 29°52' E 031°02'0 0.0
2014-Sep-26 04:21S 29°52' E 031°02'0 0.0
2014-Sep-26 03:33S 29°52' E 031°02'0 0.0
2014-Sep-26 02:21S 29°52' E 031°02'0 0.0
2014-Sep-26 00:09S 29°52' E 031°02'0 0.0
2014-Sep-25 23:33S 29°52' E 031°02'0 0.0
2014-Sep-25 22:33S 29°52' E 031°02'0 0.0
2014-Sep-25 21:33S 29°52' E 031°02'0 0.0
2014-Sep-25 20:27S 29°52' E 031°02'0 0.0
2014-Sep-25 19:33S 29°52' E 031°02'0 0.0
2014-Sep-25 18:03S 29°52' E 031°02'0 0.0
2014-Sep-25 17:33S 29°52' E 031°02'0 0.0
2014-Sep-25 16:27S 29°52' E 031°02'0 0.0
2014-Sep-25 15:27S 29°52' E 031°02'0 0.3
2014-Sep-25 14:33S 29°52' E 031°02'6 6.2
2014-Sep-25 13:33S 29°49' E 031°08'5 4.2
2014-Sep-25 12:24S 29°46' E 031°12'0 0.0
2014-Sep-25 11:18S 29°46' E 031°12'0 0.0
2014-Sep-25 10:18S 29°46' E 031°12'0 0.0
2014-Sep-25 09:30S 29°46' E 031°12'0 0.1
2014-Sep-25 08:12S 29°46' E 031°12'0 0.1
2014-Sep-25 07:24S 29°46' E 031°12'0 0.0
2014-Sep-25 06:30S 29°46' E 031°12'0 0.0
2014-Sep-25 05:30S 29°46' E 031°12'0 0.1
2014-Sep-25 04:24S 29°46' E 031°12'0 0.1
2014-Sep-25 03:30S 29°46' E 031°12'0 0.0
2014-Sep-25 02:30S 29°46' E 031°12'0 0.0
2014-Sep-25 01:30S 29°46' E 031°12'0 0.0
2014-Sep-25 00:24S 29°46' E 031°12'0 0.0
2014-Sep-24 23:30S 29°46' E 031°12'0 0.0
2014-Sep-24 22:24S 29°46' E 031°12'0 0.0
2014-Sep-24 21:30S 29°46' E 031°12'0 0.0
2014-Sep-24 19:30S 29°46' E 031°12'0 0.0
2014-Sep-24 18:24S 29°46' E 031°12'0 0.0
2014-Sep-24 17:30S 29°46' E 031°12'0 0.1
2014-Sep-24 15:11S 29°46' E 031°12'0 0.0
2014-Sep-24 14:29S 29°46' E 031°12'0 0.0
2014-Sep-24 13:17S 29°46' E 031°12'0 0.0
2014-Sep-24 12:23S 29°46' E 031°12'0 0.0
2014-Sep-24 11:29S 29°46' E 031°12'0 0.0
2014-Sep-24 10:29S 29°46' E 031°12'0 0.0
2014-Sep-24 09:17S 29°46' E 031°12'0 0.0
2014-Sep-24 08:23S 29°46' E 031°12'0 0.0
2014-Sep-24 07:23S 29°46' E 031°12'0 0.0
2014-Sep-24 06:11S 29°46' E 031°12'0 0.0
2014-Sep-24 05:17S 29°46' E 031°12'0 0.0
2014-Sep-24 04:29S 29°46' E 031°12'0 0.0
2014-Sep-24 01:23S 29°46' E 031°12'0 0.0
2014-Sep-24 00:23S 29°46' E 031°12'0 0.0
2014-Sep-23 23:11S 29°46' E 031°12'0 0.0
2014-Sep-23 22:23S 29°46' E 031°12'0 0.0
2014-Sep-23 20:11S 29°46' E 031°12'0 0.1
2014-Sep-23 19:29S 29°46' E 031°12'2 2.4
2014-Sep-23 18:33S 29°49' E 031°12'2 2.1
2014-Sep-23 17:33S 29°50' E 031°10'9 8.9
2014-Sep-23 16:33S 29°47' E 031°19'1111.4
2014-Sep-23 15:33S 29°43' E 031°32'9 8.9
2014-Sep-23 14:33S 29°41' E 031°42'1110.6
2014-Sep-23 13:32S 29°39' E 031°54'  

Dump ship's entire track history